createdAt,value
2022-10-06T06:12:31.848Z,2.10
2022-10-06T06:15:54.236Z,2.17
2022-10-06T06:18:23.063Z,1.60
2022-10-06T06:21:12.153Z,2.33
2022-10-06T06:23:51.405Z,2.07
2022-10-06T06:26:27.348Z,2.27
2022-10-06T06:29:05.515Z,1.93
2022-10-06T06:31:52.928Z,2.80
2022-10-06T06:34:25.838Z,2.17
2022-10-06T06:39:43.965Z,2.10
2022-10-06T06:42:19.019Z,2.50
2022-10-06T06:45:24.189Z,2.03
2022-10-06T06:48:35.615Z,1.57
2022-10-06T06:51:18.787Z,1.83
2022-10-06T06:53:52.886Z,2.90
2022-10-06T06:56:27.154Z,1.93
2022-10-06T06:58:58.425Z,2.00
2022-10-06T07:01:30.487Z,2.97
2022-10-06T07:04:00.787Z,2.50
2022-10-06T07:07:01.420Z,2.60
2022-10-06T07:09:46.612Z,2.23
2022-10-06T07:12:23.461Z,2.23
2022-10-06T07:18:18.847Z,2.53
2022-10-06T07:21:08.287Z,3.17
2022-10-06T07:23:58.658Z,2.10
2022-10-06T07:26:31.789Z,2.07
2022-10-06T07:29:13.735Z,2.27
2022-10-06T07:31:47.532Z,2.50
2022-10-06T07:34:38.669Z,2.50
2022-10-06T07:37:12.602Z,2.83
2022-10-06T07:39:49.673Z,2.57
2022-10-06T07:42:27.595Z,2.70
2022-10-06T07:45:16.976Z,2.38
2022-10-06T07:47:51.488Z,2.90
2022-10-06T07:50:28.159Z,3.13
2022-10-06T07:53:05.711Z,2.57
2022-10-06T07:55:56.605Z,2.53
2022-10-06T07:58:36.736Z,2.90
2022-10-06T08:01:29.345Z,2.17
2022-10-06T08:04:08.829Z,2.70
2022-10-06T08:06:48.166Z,3.10
2022-10-06T08:09:17.215Z,2.60
2022-10-06T08:11:50.887Z,2.70
2022-10-06T08:14:29.377Z,2.83
2022-10-06T08:17:01.032Z,2.67
2022-10-06T08:19:47.186Z,3.22
2022-10-06T08:22:21.305Z,2.30
2022-10-06T08:25:08.267Z,2.53
2022-10-06T08:27:44.823Z,2.70
2022-10-06T08:30:18.832Z,2.37
2022-10-06T08:32:48.521Z,2.70
2022-10-06T08:35:29.684Z,2.77
2022-10-06T08:40:53.356Z,2.67
2022-10-06T08:43:26.671Z,2.90
2022-10-06T08:46:15.121Z,3.87
2022-10-06T08:48:46.532Z,3.33
2022-10-06T08:51:49.054Z,3.70
2022-10-06T08:54:46.633Z,3.30
2022-10-06T08:57:30.084Z,3.17
2022-10-06T09:00:19.613Z,2.87
2022-10-06T09:02:53.848Z,2.70
2022-10-06T09:05:31.161Z,3.07
2022-10-06T09:08:41.264Z,2.63
2022-10-06T09:11:28.066Z,3.03
2022-10-06T09:14:10.597Z,3.77
2022-10-06T09:16:45.950Z,2.97
2022-10-06T09:19:34.016Z,2.77
2022-10-06T09:22:08.379Z,2.83
2022-10-06T09:24:48.459Z,2.30
2022-10-06T09:27:45.155Z,2.77
2022-10-06T09:30:17.524Z,3.43
2022-10-06T09:32:51.191Z,2.87
2022-10-06T09:35:28.539Z,2.23
2022-10-06T09:38:09.390Z,3.37
2022-10-06T09:40:51.683Z,3.05
2022-10-06T09:43:35.752Z,2.83
2022-10-06T09:46:43.673Z,2.20
2022-10-06T09:49:23.618Z,2.30
2022-10-06T09:52:27.380Z,2.03
2022-10-06T09:55:18.883Z,2.37
2022-10-06T09:58:00.984Z,2.35
2022-10-06T10:00:38.439Z,2.13
2022-10-06T10:03:23.688Z,1.73
2022-10-06T10:06:02.783Z,1.77
2022-10-06T10:08:39.228Z,2.43
2022-10-06T10:11:43.589Z,2.38
2022-10-06T10:14:31.260Z,2.40
2022-10-06T10:17:08.679Z,2.78
2022-10-06T10:19:48.249Z,2.47
2022-10-06T10:22:42.633Z,2.63
2022-10-06T10:25:37.000Z,2.30
2022-10-06T10:28:56.461Z,2.78
2022-10-06T10:31:45.282Z,2.92
2022-10-06T10:34:38.496Z,2.42
2022-10-06T10:41:01.031Z,2.28
2022-10-06T10:44:04.298Z,2.03
2022-10-06T10:46:45.482Z,2.15
2022-10-06T10:49:33.473Z,2.03
2022-10-06T10:52:27.577Z,1.65
2022-10-06T10:55:40.262Z,2.30
2022-10-06T10:58:49.690Z,2.20
2022-10-06T11:01:57.527Z,2.17
2022-10-06T11:04:30.767Z,1.38
2022-10-06T11:07:30.278Z,1.58
2022-10-06T11:10:25.898Z,1.63
2022-10-06T11:13:15.830Z,1.67
2022-10-06T11:16:02.969Z,1.52
2022-10-06T11:18:54.627Z,1.80
2022-10-06T11:22:00.083Z,1.65
2022-10-06T11:25:20.235Z,1.60
2022-10-06T11:28:40.224Z,1.42
2022-10-06T11:31:23.244Z,1.60
2022-10-06T11:34:05.129Z,1.25
2022-10-06T11:37:13.391Z,1.48
2022-10-06T11:40:47.624Z,1.58
2022-10-06T11:43:33.511Z,1.35
2022-10-06T11:46:31.875Z,1.50
2022-10-06T11:49:39.486Z,1.42
2022-10-06T11:52:24.450Z,1.30
2022-10-06T11:55:11.477Z,1.30
2022-10-06T11:58:41.383Z,1.20
2022-10-06T12:01:48.523Z,1.40
2022-10-06T12:04:25.861Z,2.17
2022-10-06T12:07:00.715Z,1.08
2022-10-06T12:09:52.998Z,1.05
2022-10-06T12:12:36.530Z,1.42
2022-10-06T12:17:08.467Z,1.30
2022-10-06T12:18:35.925Z,1.55
2022-10-06T12:22:07.987Z,0.77
2022-10-06T12:28:33.516Z,1.05
2022-10-06T12:32:00.568Z,0.90
2022-10-06T12:35:18.067Z,1.00
2022-10-06T12:37:56.116Z,0.85
2022-10-06T12:40:54.407Z,1.17
2022-10-06T12:47:09.855Z,0.70
2022-10-06T12:49:53.478Z,1.00
2022-10-06T12:53:08.064Z,1.00
2022-10-06T12:56:06.490Z,1.15
2022-10-06T12:58:35.374Z,0.90
2022-10-06T13:01:31.871Z,0.98
2022-10-06T13:03:59.970Z,0.68
2022-10-06T13:06:35.125Z,0.85
2022-10-06T13:09:10.525Z,0.93
2022-10-06T13:11:47.934Z,0.85
2022-10-06T13:14:24.498Z,0.70
2022-10-06T13:16:52.838Z,1.00
2022-10-06T13:19:28.865Z,0.73
2022-10-06T13:22:10.405Z,0.82
2022-10-06T13:27:44.263Z,0.60
2022-10-06T13:30:27.561Z,0.45
2022-10-06T13:33:03.031Z,0.50
2022-10-06T13:35:41.717Z,0.60
2022-10-06T13:38:11.390Z,0.50
2022-10-06T13:40:46.687Z,0.65
2022-10-06T13:43:22.211Z,0.80
2022-10-06T13:46:00.076Z,0.50
2022-10-06T13:48:35.828Z,0.50
2022-10-06T13:51:13.661Z,0.77
2022-10-06T13:53:57.823Z,0.70
2022-10-06T13:56:49.063Z,0.50
2022-10-06T13:59:43.058Z,0.30
2022-10-06T14:02:39.339Z,0.43
2022-10-06T14:05:56.624Z,0.47
2022-10-06T14:08:28.463Z,0.88
2022-10-06T14:11:01.394Z,0.40
2022-10-06T14:13:42.848Z,0.50
2022-10-06T14:16:23.742Z,0.60
2022-10-06T14:19:07.673Z,0.38
2022-10-06T14:21:46.239Z,0.40
2022-10-06T14:24:37.639Z,0.50
2022-10-06T14:27:10.922Z,0.40
2022-10-06T14:29:41.341Z,0.35
2022-10-06T14:32:16.734Z,0.57
2022-10-06T14:34:49.517Z,0.75
2022-10-06T14:37:19.803Z,0.57
2022-10-06T14:40:03.082Z,0.47
2022-10-06T14:42:37.333Z,0.60
2022-10-06T14:45:16.794Z,0.45
2022-10-06T14:47:48.230Z,0.60
2022-10-06T14:50:18.528Z,0.60
2022-10-06T14:52:50.473Z,0.47
2022-10-06T14:55:32.560Z,0.50
2022-10-06T14:58:05.094Z,0.60
2022-10-06T15:00:34.686Z,0.40
2022-10-06T15:03:06.635Z,0.57
2022-10-06T15:05:59.825Z,0.50
2022-10-06T15:08:39.064Z,0.43
2022-10-06T15:11:10.723Z,0.60
2022-10-06T15:13:42.608Z,0.50
2022-10-06T15:16:14.216Z,0.68
2022-10-06T15:18:45.001Z,0.63
2022-10-06T15:21:26.609Z,0.75
2022-10-06T15:24:06.847Z,0.57
2022-10-06T15:26:56.392Z,0.90
2022-10-06T15:29:42.355Z,0.32
2022-10-06T15:32:17.129Z,0.30
2022-10-06T15:35:03.880Z,0.50
2022-10-06T15:37:35.613Z,0.60
2022-10-06T15:40:08.175Z,0.50
2022-10-06T15:42:51.566Z,0.70
2022-10-06T15:45:23.589Z,0.68
2022-10-06T15:48:08.831Z,0.50
2022-10-06T15:50:47.216Z,0.32
2022-10-06T15:53:19.561Z,0.90
2022-10-06T15:55:52.219Z,0.70
2022-10-06T15:58:23.949Z,0.65
2022-10-06T16:01:01.023Z,0.43
2022-10-06T16:03:43.403Z,0.63
2022-10-06T16:06:19.579Z,0.80
2022-10-06T16:08:57.612Z,0.95
2022-10-06T16:11:33.592Z,1.00
2022-10-06T16:14:08.202Z,1.23
2022-10-06T16:16:58.746Z,1.48
